EGGPEGBB

Guest
Details From EGGP - Liverpool
To EGBB - Birmingham
Flight Number -
Tags generated
Created
Modified
Stats Distance 66 nm / 122 km
Max Altitude 9,300 ft / 2,835 m
Waypoints 3
Social Downloads 1
Likes 0
Share VATSIM

Download

Looking for another format? Having issues loading an existing format? Contact us
Advertisement - Login to hide

Notes

Basic altitude profile: - Ascent Rate: 2300ft/min - Ascent Speed: 112kts - Cruise Altitude: 20000ft - Cruise Speed: 185kts - Descent Rate: 1500ft/min - Descent Speed: 180kts

Route

EGGP HON28 EGBB

ID Type Via Altitude Latitude Longitude Leg Dist Tot Dist Heading (true) Name
O EGGP APT - 0 ft / 0 m 53.33363˚ -2.84977˚ - 0 nm - Liverpool
HON28 FIX - 9,300 ft / 2,835 m 52.73889˚ -2.10083˚ 44 nm 44 nm 143° / 143° -
O EGBB APT - 0 ft / 0 m 52.45597˚ -1.75038˚ 21 nm 66 nm 143° / 143° Birmingham

Altitude Profile

Advertisement - Login to hide

EGGP

Details ICAO EGGP (LPL)
Name Liverpool
Region United Kingdom
Timezone Europe/London (UTC+1.0)
Stats Elevation 80 ft / 24 m (AMSL)
Location 53.333632° -2.849769°
Runways 1
Magnetic Variation 1.605° W

METAR

EGGP 230520Z 06007KT CAVOK 09/07 Q1025

Decode

TAF

TAF TAF EGGP 222257Z 2300/2324 07007KT CAVOK PROB30 TEMPO 2300/2309 8000

Decode

Departure Runways

ID Width Length Bearing (true) Bearing (mag) Surface Threshold Offset Overrun Length
09 151 ft / 46 m 7,466 ft / 2,276 m 85.59° 87.20° Asphalt 180 ft / 55 m 0 ft / 0 m
27 151 ft / 46 m 7,466 ft / 2,276 m 265.61° 267.22° Asphalt 0 ft / 0 m 0 ft / 0 m

EGBB

Details ICAO EGBB (BHX)
Name Birmingham
Region United Kingdom
Timezone Europe/London (UTC+1.0)
Stats Elevation 327 ft / 100 m (AMSL)
Location 52.455966° -1.750378°
Runways 1
Magnetic Variation 1.073° W

METAR

EGBB 230520Z 02010KT 9999 OVC013 10/07 Q1024

Decode

TAF

TAF AMD EGBB 230007Z 2300/2324 03009KT 9999 FEW045 BECMG 2300/2303 7000 BKN012 PROB40 2303/2308 3000 BR BKN007 BECMG 2308/2311 9999 FEW045

Decode

Destination Runways

ID Width Length Bearing (true) Bearing (mag) Surface Threshold Offset Overrun Length
15 151 ft / 46 m 8,477 ft / 2,584 m 145.87° 146.94° Asphalt 925 ft / 282 m 0 ft / 0 m
33 151 ft / 46 m 8,477 ft / 2,584 m 325.89° 326.96° Asphalt 958 ft / 292 m 0 ft / 0 m

Approach Navaids

Runway Type Ident Frequency Range Bearing (true) Bearing (mag) Slope Elevation
15 Localiser IBIR 110.10 MHz 18 nm / 33 km 145.89° 146.97° - 325 ft / 99 m (AMSL)
15 Glidescope IBIR 110.10 MHz 10 nm / 19 km 145.88° 146.95° 3.00° 325 ft / 99 m (AMSL)
15 DME IBIR 110.10 MHz 18 nm / 33 km - - - 349 ft / 106 m (AMSL)
33 Localiser IBM 110.10 MHz 18 nm / 33 km 325.87° 326.94° - 325 ft / 99 m (AMSL)
33 Glidescope IBM 110.10 MHz 10 nm / 19 km 325.88° 326.95° 3.00° 325 ft / 99 m (AMSL)
33 DME IBM 110.10 MHz 18 nm / 33 km - - - 327 ft / 100 m (AMSL)

Popular Alternatives